Hicksville, OH

5:26 AM EDT on April 19, 2015 (GMT -0400)
Hillsdale Municipal | | Change Station
CLOSE
Current Station
Airport
Location: Hillsdale,
Elevation: 1181 ft
Nearby Weather Stations

Elev 1181 ft 41.92 °N, 84.59 °W | Updated 11 minutes ago

Mostly Cloudy
Mostly Cloudy
48 °F
Feels Like 48 °F
N
18
Wind Variable Wind from East
Gusts 23 mph

Today
High -- | Low -- °F
--% Chance of Precip.
Yesterday
High -- | Low -- °F
Precip. -- in
6:53 AM 8:23 PM
New Moon, 1% visible
Pressure 30.02 in
Visibility 10.0 miles
Clouds Clear
Dew Point 29 °F
Humidity 49%
Rainfall 0.00 in
Snow Depth Not available.
UV 0 out of 12
Pollen 11.40 out of 12
Air Quality Not available.
Flu Activity Regional
METAR KJYM 190915Z AUTO 10016G20KT 10SM CLR 09/M01 A3002 RMK AO2 T00881015

More Conditions Fewer Conditions

Pressure 30.02 in
Visibility 10.0 miles
Clouds Clear
Dew Point 29 °F
Humidity 49%
Rainfall 0.00 in
Snow Depth Not available.
UV 0 out of 12
Pollen 11.40 out of 12
Air Quality Not available.
Flu Activity Regional
METAR KJYM 190915Z AUTO 10016G20KT 10SM CLR 09/M01 A3002 RMK AO2 T00881015

More Conditions Fewer Conditions

10-Day Weather Forecast

Almanac

Astronomy

Apr. 19, 2015 Rise Set
Actual Time
Civil Twilight
Nautical Twilight
Astronomical Twilight
Moon
Length of Visible Light
Length of Day
Tomorrow will be .
, % of the Moon is Illuminated

Today's Extremes

State Highs State Lows

Community

WunderPhotos

Upload Photos

1,814,753 photos uploaded!

WunderBlogs® & News

Nearby

Air Quality

  Air Quality AQ Index Pollutant
Not available.

Snow Depth

Station Depth Elevation

Earthquake Activity

City Distance Mag. Time & Date
Minimum magnitude displayed is 2.5.

Coastal Water Temperatures

Place Temperature

Stations

Nearby Weather Stations

Station Location Temp. Windchill Dew Point Humidity Wind Precip. Elev Updated Type